TimePDT,TemperatureF,Dew PointF,Humidity,Sea Level PressureIn,VisibilityMPH,Wind Direction,Wind SpeedMPH,Gust SpeedMPH,PrecipitationIn,Events,Conditions,WindDirDegrees,DateUTC
12:54 AM,55.9,28.0,34,30.08,10.0,ESE,3.5,-,N/A,,Clear,110,2013-10-05 07:54:00
1:54 AM,50.0,28.9,44,30.09,10.0,East,3.5,-,N/A,,Clear,100,2013-10-05 08:54:00
2:54 AM,55.9,25.0,30,30.10,10.0,ENE,4.6,-,N/A,,Clear,60,2013-10-05 09:54:00
3:54 AM,66.0,21.0,18,30.10,10.0,NE,5.8,-,N/A,,Clear,40,2013-10-05 10:54:00
4:54 AM,62.1,23.0,22,30.11,10.0,ENE,6.9,-,N/A,,Clear,70,2013-10-05 11:54:00
5:54 AM,51.1,27.0,39,30.11,10.0,ESE,5.8,-,N/A,,Clear,110,2013-10-05 12:54:00
6:54 AM,48.9,28.0,44,30.13,10.0,Calm,Calm,-,N/A,,Clear,0,2013-10-05 13:54:00
7:54 AM,51.1,30.0,44,30.15,10.0,SE,3.5,-,N/A,,Clear,130,2013-10-05 14:54:00
8:54 AM,64.0,32.0,30,30.17,10.0,Calm,Calm,-,N/A,,Clear,0,2013-10-05 15:54:00
9:54 AM,73.0,24.1,16,30.17,10.0,Calm,Calm,-,N/A,,Clear,0,2013-10-05 16:54:00
10:54 AM,75.9,28.9,18,30.17,10.0,East,3.5,-,N/A,,Clear,80,2013-10-05 17:54:00
11:54 AM,80.1,26.1,14,30.16,10.0,Calm,Calm,-,N/A,,Clear,0,2013-10-05 18:54:00
12:28 PM,82.4,24.8,12,30.18,10.0,East,11.5,-,N/A,,Clear,100,2013-10-05 19:28:00
12:54 PM,82.9,23.0,11,30.14,10.0,ESE,8.1,-,N/A,,Clear,110,2013-10-05 19:54:00
1:54 PM,84.0,21.0,10,30.12,10.0,Variable,6.9,-,N/A,,Clear,0,2013-10-05 20:54:00
2:54 PM,84.0,21.9,10,30.11,10.0,Variable,6.9,-,N/A,,Clear,0,2013-10-05 21:54:00
3:54 PM,84.9,21.9,10,30.10,10.0,SSE,5.8,-,N/A,,Clear,160,2013-10-05 22:54:00
4:54 PM,84.0,21.9,10,30.09,10.0,Calm,Calm,-,N/A,,Clear,0,2013-10-05 23:54:00
5:54 PM,81.0,27.0,14,30.08,10.0,ESE,5.8,-,N/A,,Clear,110,2013-10-06 00:54:00
6:54 PM,73.9,28.9,19,30.08,10.0,Calm,Calm,-,N/A,,Clear,0,2013-10-06 01:54:00
7:54 PM,63.0,30.9,30,30.08,10.0,Calm,Calm,-,N/A,,Clear,0,2013-10-06 02:54:00
8:54 PM,61.0,33.1,35,30.09,10.0,ESE,5.8,-,N/A,,Clear,120,2013-10-06 03:54:00
9:54 PM,57.0,36.0,45,30.10,10.0,NE,3.5,-,N/A,,Clear,40,2013-10-06 04:54:00
10:54 PM,52.0,34.0,50,30.10,10.0,Calm,Calm,-,N/A,,Clear,0,2013-10-06 05:54:00
11:54 PM,57.9,32.0,37,30.10,10.0,North,5.8,-,N/A,,Clear,10,2013-10-06 06:54:00